Terminal Aerodrome Forecast
Issued by NWS

Home | Current Version | Previous Version | Text Only | Print | Product List | Glossary On
Versions: 1 2 3 4 5 6 7 8 9 10 11 12 13 14 15
000
FTUS41 KCAR 230538
TAFHUL
TAF
KHUL 230538Z 2306/2406 00000KT P6SM SKC
     FM230800 00000KT 4SM BR SCT003 BKN015
     FM231000 VRB03KT P6SM BKN003
     FM231500 17004KT P6SM BKN007
     FM232000 20008KT P6SM BKN015
     FM240200 23011G18KT P6SM SCT007 BKN015=

USA.gov is the U.S. government's official web portal to all federal, state and local government web resources and services.